General Aviation Weather

Text Reports

Enter one or more of the following location identifiers separated by a space:

Zip Code, Four-Character ICAO or Three-Character IATA airport codes.

METAR - Aviation Routine Weather Report
KRMY - Marshall, Michigan
Updated at 5:14 AM GMT on July 23, 2014 (1:14 AM EDT):
METAR KRMY 230514Z AUTO 25009G16KT 10SM CLR 25/18 A2997 RMK AO2 T02460177
TAF - Terminal Area Forecast
KRMY - Marshall, Michigan
Updated at 5:14 AM GMT on July 23, 2014 (1:14 AM EDT):
No TAF is currently available for this location.
Decoded:
No decoded TAF is available.
PIREP - Pilot Weather Report
KRMY - Marshall, Michigan
Updated at 5:14 AM GMT on July 23, 2014 (1:14 AM EDT):
No PIREP is currently available for this location.
AIRMET - Airmens Meteorological Information
KRMY - Marshall, Michigan
Updated at 5:14 AM GMT on July 23, 2014 (1:14 AM EDT):
No AIRMET is currently available for this location.
SIGMET - Significant Meteorological Information
KRMY - Marshall, Michigan
Updated at 5:14 AM GMT on July 23, 2014 (1:14 AM EDT):
No SIGMET is currently available for this location.
NOTAM - Notice to Airmen
KRMY - Marshall, Michigan
Updated at 5:14 AM GMT on July 23, 2014 (1:14 AM EDT):
No NOTAM is currently available for this location.
Forecast Area
KRMY - Marshall, Michigan
Updated at 5:14 AM GMT on July 23, 2014 (1:14 AM EDT):
No NOTAM is currently available for this location.
Aviation Weather Maps